Greenwood, Illinois
Current Conditions -  °F | °C
As of 1:35 AM on Saturday 29 Nov 2014 (Local Time) from KBUU Reporting Station
Haze Haze  
Wind Chill: 27°   Ceiling: Unl
Heat Index: 27°   Visibility: 3mi
Dew Point: 27°   Wind: 3mph
Humidity: 99%   Direction: 140°SE
Pressure: 29.8"   Gusts: NA
Location:  42.3247°N, 88.4593°W
Report Text: KBUU 290735Z AUTO 14003KT 3SM BR CLR M03/M03 A2980 RMK AO2 T10271028
Loading
Personal Weather Stations






























Interactive Weather Map New forecast layout! Learn more

10-Day Weather Forecast

Advertisements
Track Severe Weather on mobile